Airfield :
LOGIN :

Register | Disclaimer

   EN    FR    IT 

 










Legend :    VFR   Marginal VFR   IFR   Intensive IFR   Very Intensive IFR
Visi :
Ceiling :
>= 8 km
>= 3000ft
5 to 8 km
1000 to 3000 ft
1500m to 5 km
500 to 1000 ft
800 to 1500m
200 to 500 ft
< 800m
< 200 ft
Symbols :   Thunderstorms  Fog  Heavy snow  Heavy precipitations  Wind > 20 kt
SIGMETs :     Misc.  Thunderstorms  Icing  Turbulence  Mountain Waves  Volcanic Ashes






- Airport Elevation : 1300 ft
- IATA code : LIG


LFBL - Limoges

CURRENT METAR :
  • 291930Z AUTO 11003KT CAVOK 06/05 Q1019 NOSIG

EXPIRED METARs :
  • 291900Z AUTO 16003KT CAVOK 06/05 Q1019 NOSIG
  • 291830Z AUTO 17005KT 9999 FEW026 BKN034 07/05 Q1019 NOSIG
  • 291800Z AUTO 18005KT 9999 BKN025 BKN030 OVC036 07/06 Q1019 NOSIG
  • 291730Z AUTO 18004KT 9999 BKN037 07/05 Q1019 BECMG BKN009
  • 291700Z AUTO 19003KT CAVOK 07/05 Q1019 BECMG BKN009

TAF TAF LFBL
Valid from the 29 at 18:00 until the 30 at 18:00 UTC


291700Z 2918/3018 18006KT 9999 SCT035
BECMG 2922/2924 BKN006 OVC025
TEMPO 3005/3014 3000 RA BKN003
PROB40
TEMPO 3014/3018 2000 RADZ BKN002
ATIS : +33 5 55 48 40 37



MET'MAP, your aeronautical weather chart ! - Copyright ORBIFLY December 2007 - Disclaimer

ORBIFLY MET'MAP TEAM :

Programming & Development : Alexandra Zaïnal
Concept & original design : Baudouin d'Aumeries
Assistance for programming : Marc-Olivier Méhu
Technical & hardware support : Manuel Goepfert

Contact : metmap@orbifly.com




SOURCES & CREDITS :

   NOAA